sensor_id;sensor_type;location;lat;lon;timestamp;pressure;altitude;pressure_sealevel;temperature;humidity
66742;BME280;53654;54.152;19.432;2023-12-22T00:01:01;97081.43;;;5.75;76.81
66742;BME280;53654;54.152;19.432;2023-12-22T00:03:39;97082.38;;;5.77;76.99
66742;BME280;53654;54.152;19.432;2023-12-22T00:06:08;97081.57;;;5.79;77.12
66742;BME280;53654;54.152;19.432;2023-12-22T00:08:37;97079.66;;;5.79;77.31
66742;BME280;53654;54.152;19.432;2023-12-22T00:11:05;97078.20;;;5.81;77.62
66742;BME280;53654;54.152;19.432;2023-12-22T00:13:33;97080.35;;;5.83;77.66
66742;BME280;53654;54.152;19.432;2023-12-22T00:16:02;97069.39;;;5.84;77.74
66742;BME280;53654;54.152;19.432;2023-12-22T00:18:30;97075.95;;;5.85;77.81
66742;BME280;53654;54.152;19.432;2023-12-22T00:21:00;97068.61;;;5.86;77.86
66742;BME280;53654;54.152;19.432;2023-12-22T00:23:28;97055.98;;;5.86;77.84
66742;BME280;53654;54.152;19.432;2023-12-22T00:25:56;97054.02;;;5.84;77.84
66742;BME280;53654;54.152;19.432;2023-12-22T00:28:24;97057.04;;;5.82;77.93
66742;BME280;53654;54.152;19.432;2023-12-22T00:30:53;97054.31;;;5.81;78.00
66742;BME280;53654;54.152;19.432;2023-12-22T00:33:21;97053.49;;;5.81;77.70
66742;BME280;53654;54.152;19.432;2023-12-22T00:35:49;97055.63;;;5.79;77.79
66742;BME280;53654;54.152;19.432;2023-12-22T00:38:17;97052.48;;;5.80;77.86
66742;BME280;53654;54.152;19.432;2023-12-22T00:40:46;97046.77;;;5.80;77.70
66742;BME280;53654;54.152;19.432;2023-12-22T00:43:14;97037.69;;;5.78;77.45
66742;BME280;53654;54.152;19.432;2023-12-22T00:45:42;97036.59;;;5.76;77.39
66742;BME280;53654;54.152;19.432;2023-12-22T00:48:10;97031.34;;;5.70;77.65
66742;BME280;53654;54.152;19.432;2023-12-22T00:50:38;97018.02;;;5.67;77.82
66742;BME280;53654;54.152;19.432;2023-12-22T00:53:06;97020.64;;;5.66;77.89
66742;BME280;53654;54.152;19.432;2023-12-22T00:55:35;97029.34;;;5.68;77.76
66742;BME280;53654;54.152;19.432;2023-12-22T00:58:03;97028.14;;;5.68;77.57
66742;BME280;53654;54.152;19.432;2023-12-22T01:00:31;97027.05;;;5.66;77.50
66742;BME280;53654;54.152;19.432;2023-12-22T01:02:59;97030.09;;;5.64;77.64
66742;BME280;53654;54.152;19.432;2023-12-22T01:05:28;97022.23;;;5.65;77.68
66742;BME280;53654;54.152;19.432;2023-12-22T01:07:56;97004.91;;;5.66;77.57
66742;BME280;53654;54.152;19.432;2023-12-22T01:10:25;97005.84;;;5.68;77.31
66742;BME280;53654;54.152;19.432;2023-12-22T01:12:53;97014.23;;;5.67;77.28
66742;BME280;53654;54.152;19.432;2023-12-22T01:15:21;97014.11;;;5.65;77.35
66742;BME280;53654;54.152;19.432;2023-12-22T01:17:50;97015.86;;;5.65;77.57
66742;BME280;53654;54.152;19.432;2023-12-22T01:20:19;97028.42;;;5.66;77.43
66742;BME280;53654;54.152;19.432;2023-12-22T01:22:47;97030.77;;;5.68;77.38
66742;BME280;53654;54.152;19.432;2023-12-22T01:25:16;97031.94;;;5.69;77.31
66742;BME280;53654;54.152;19.432;2023-12-22T01:27:44;97034.58;;;5.68;77.19
66742;BME280;53654;54.152;19.432;2023-12-22T01:30:12;97035.34;;;5.70;77.36
66742;BME280;53654;54.152;19.432;2023-12-22T01:32:41;97038.21;;;5.71;77.60
66742;BME280;53654;54.152;19.432;2023-12-22T01:35:09;97033.77;;;5.73;77.46
66742;BME280;53654;54.152;19.432;2023-12-22T01:37:38;97018.27;;;5.75;77.38
66742;BME280;53654;54.152;19.432;2023-12-22T01:40:07;97015.15;;;5.76;77.37
66742;BME280;53654;54.152;19.432;2023-12-22T01:42:35;97014.27;;;5.73;77.07
66742;BME280;53654;54.152;19.432;2023-12-22T01:45:04;97016.73;;;5.68;77.09
66742;BME280;53654;54.152;19.432;2023-12-22T01:47:33;97015.34;;;5.69;77.24
66742;BME280;53654;54.152;19.432;2023-12-22T01:50:02;97022.08;;;5.68;77.47
66742;BME280;53654;54.152;19.432;2023-12-22T01:52:31;97023.86;;;5.68;77.41
66742;BME280;53654;54.152;19.432;2023-12-22T01:54:59;97022.84;;;5.67;77.49
66742;BME280;53654;54.152;19.432;2023-12-22T01:57:28;97030.54;;;5.65;77.45
66742;BME280;53654;54.152;19.432;2023-12-22T01:59:57;97026.14;;;5.63;77.71
66742;BME280;53654;54.152;19.432;2023-12-22T02:02:26;97019.96;;;5.62;77.92
66742;BME280;53654;54.152;19.432;2023-12-22T02:04:57;97023.66;;;5.61;77.82
66742;BME280;53654;54.152;19.432;2023-12-22T02:07:26;97036.67;;;5.56;77.61
66742;BME280;53654;54.152;19.432;2023-12-22T02:09:55;97041.64;;;5.54;78.04
66742;BME280;53654;54.152;19.432;2023-12-22T02:12:24;97044.02;;;5.55;78.50
66742;BME280;53654;54.152;19.432;2023-12-22T02:14:52;97057.98;;;5.52;78.99
66742;BME280;53654;54.152;19.432;2023-12-22T02:17:26;97066.90;;;5.45;79.60
66742;BME280;53654;54.152;19.432;2023-12-22T02:19:58;97071.50;;;5.36;80.21
66742;BME280;53654;54.152;19.432;2023-12-22T02:22:28;97071.30;;;5.25;80.42
66742;BME280;53654;54.152;19.432;2023-12-22T02:24:57;97078.35;;;5.17;80.91
66742;BME280;53654;54.152;19.432;2023-12-22T02:30:11;97079.83;;;5.04;81.08
66742;BME280;53654;54.152;19.432;2023-12-22T02:32:43;97071.93;;;4.92;80.96
66742;BME280;53654;54.152;19.432;2023-12-22T02:35:17;97044.68;;;4.83;81.31
66742;BME280;53654;54.152;19.432;2023-12-22T02:37:48;97020.41;;;4.77;81.38
66742;BME280;53654;54.152;19.432;2023-12-22T02:40:17;96990.02;;;4.73;81.48
66742;BME280;53654;54.152;19.432;2023-12-22T02:42:47;97020.77;;;4.69;81.39
66742;BME280;53654;54.152;19.432;2023-12-22T02:45:17;97033.50;;;4.66;81.44
66742;BME280;53654;54.152;19.432;2023-12-22T02:47:46;97041.90;;;4.64;81.25
66742;BME280;53654;54.152;19.432;2023-12-22T02:50:16;97044.67;;;4.59;81.24
66742;BME280;53654;54.152;19.432;2023-12-22T02:52:45;97049.65;;;4.52;81.22
66742;BME280;53654;54.152;19.432;2023-12-22T02:55:13;97045.70;;;4.47;81.35
66742;BME280;53654;54.152;19.432;2023-12-22T02:57:41;97047.55;;;4.44;81.45
66742;BME280;53654;54.152;19.432;2023-12-22T03:00:10;97059.77;;;4.41;81.41
66742;BME280;53654;54.152;19.432;2023-12-22T03:02:39;97054.98;;;4.36;81.08
66742;BME280;53654;54.152;19.432;2023-12-22T03:05:07;97058.43;;;4.32;80.93
66742;BME280;53654;54.152;19.432;2023-12-22T03:07:36;97062.92;;;4.32;81.00
66742;BME280;53654;54.152;19.432;2023-12-22T03:10:05;97067.85;;;4.34;80.94
66742;BME280;53654;54.152;19.432;2023-12-22T03:12:33;97077.27;;;4.36;80.55
66742;BME280;53654;54.152;19.432;2023-12-22T03:15:01;97075.65;;;4.37;80.16
66742;BME280;53654;54.152;19.432;2023-12-22T03:17:29;97083.94;;;4.37;79.79
66742;BME280;53654;54.152;19.432;2023-12-22T03:19:58;97085.16;;;4.37;79.53
66742;BME280;53654;54.152;19.432;2023-12-22T03:22:26;97086.31;;;4.34;79.16
66742;BME280;53654;54.152;19.432;2023-12-22T03:24:54;97081.34;;;4.29;78.97
66742;BME280;53654;54.152;19.432;2023-12-22T03:27:22;97087.69;;;4.26;79.25
66742;BME280;53654;54.152;19.432;2023-12-22T03:29:51;97092.23;;;4.25;78.99
66742;BME280;53654;54.152;19.432;2023-12-22T03:32:19;97093.92;;;4.21;78.79
66742;BME280;53654;54.152;19.432;2023-12-22T03:34:47;97098.41;;;4.21;78.86
66742;BME280;53654;54.152;19.432;2023-12-22T03:37:16;97105.52;;;4.20;78.93
66742;BME280;53654;54.152;19.432;2023-12-22T03:39:44;97108.85;;;4.18;79.14
66742;BME280;53654;54.152;19.432;2023-12-22T03:42:12;97099.14;;;4.20;79.17
66742;BME280;53654;54.152;19.432;2023-12-22T03:44:40;97103.91;;;4.17;79.17
66742;BME280;53654;54.152;19.432;2023-12-22T03:47:08;97105.59;;;4.14;79.32
66742;BME280;53654;54.152;19.432;2023-12-22T03:49:36;97111.14;;;4.13;79.23
66742;BME280;53654;54.152;19.432;2023-12-22T03:52:05;97111.69;;;4.13;79.38
66742;BME280;53654;54.152;19.432;2023-12-22T03:54:33;97105.67;;;4.12;79.37
66742;BME280;53654;54.152;19.432;2023-12-22T03:57:01;97104.00;;;4.11;79.61
66742;BME280;53654;54.152;19.432;2023-12-22T03:59:29;97113.96;;;4.12;79.73
66742;BME280;53654;54.152;19.432;2023-12-22T04:01:57;97102.21;;;4.12;79.79
66742;BME280;53654;54.152;19.432;2023-12-22T04:04:29;97100.95;;;4.13;79.82
66742;BME280;53654;54.152;19.432;2023-12-22T04:06:57;97097.55;;;4.17;79.90
66742;BME280;53654;54.152;19.432;2023-12-22T04:09:25;97107.60;;;4.16;80.25
66742;BME280;53654;54.152;19.432;2023-12-22T04:11:53;97112.42;;;4.16;80.19
66742;BME280;53654;54.152;19.432;2023-12-22T04:14:22;97127.63;;;4.11;80.50
66742;BME280;53654;54.152;19.432;2023-12-22T04:16:50;97122.42;;;4.03;80.66
66742;BME280;53654;54.152;19.432;2023-12-22T04:19:21;97124.09;;;3.96;81.25
66742;BME280;53654;54.152;19.432;2023-12-22T04:21:49;97125.29;;;3.92;81.49
66742;BME280;53654;54.152;19.432;2023-12-22T04:24:17;97138.27;;;3.86;81.47
66742;BME280;53654;54.152;19.432;2023-12-22T04:26:46;97138.73;;;3.83;81.84
66742;BME280;53654;54.152;19.432;2023-12-22T04:29:14;97142.64;;;3.80;81.95
66742;BME280;53654;54.152;19.432;2023-12-22T04:31:43;97147.13;;;3.76;82.14
66742;BME280;53654;54.152;19.432;2023-12-22T04:34:14;97147.81;;;3.71;82.45
66742;BME280;53654;54.152;19.432;2023-12-22T04:36:44;97142.30;;;3.67;82.76
66742;BME280;53654;54.152;19.432;2023-12-22T04:39:12;97142.23;;;3.64;82.90
66742;BME280;53654;54.152;19.432;2023-12-22T04:41:40;97139.44;;;3.61;83.17
66742;BME280;53654;54.152;19.432;2023-12-22T04:44:08;97142.10;;;3.59;83.42
66742;BME280;53654;54.152;19.432;2023-12-22T04:46:37;97143.04;;;3.56;83.52
66742;BME280;53654;54.152;19.432;2023-12-22T04:49:05;97143.45;;;3.54;83.68
66742;BME280;53654;54.152;19.432;2023-12-22T04:51:33;97149.34;;;3.53;83.65
66742;BME280;53654;54.152;19.432;2023-12-22T04:54:01;97149.39;;;3.52;83.61
66742;BME280;53654;54.152;19.432;2023-12-22T04:56:29;97149.48;;;3.50;83.37
66742;BME280;53654;54.152;19.432;2023-12-22T04:58:57;97151.48;;;3.47;83.26
66742;BME280;53654;54.152;19.432;2023-12-22T05:01:26;97157.98;;;3.43;83.44
66742;BME280;53654;54.152;19.432;2023-12-22T05:03:54;97159.70;;;3.39;83.19
66742;BME280;53654;54.152;19.432;2023-12-22T05:06:22;97163.33;;;3.35;83.28
66742;BME280;53654;54.152;19.432;2023-12-22T05:08:50;97165.10;;;3.28;83.23
66742;BME280;53654;54.152;19.432;2023-12-22T05:11:19;97168.91;;;3.23;83.25
66742;BME280;53654;54.152;19.432;2023-12-22T05:13:48;97176.06;;;3.16;83.27
66742;BME280;53654;54.152;19.432;2023-12-22T05:16:16;97174.31;;;3.12;83.42
66742;BME280;53654;54.152;19.432;2023-12-22T05:18:45;97171.67;;;3.08;83.37
66742;BME280;53654;54.152;19.432;2023-12-22T05:21:13;97169.65;;;3.03;83.61
66742;BME280;53654;54.152;19.432;2023-12-22T05:23:44;97175.48;;;2.99;83.66
66742;BME280;53654;54.152;19.432;2023-12-22T05:26:19;97170.83;;;2.94;83.88
66742;BME280;53654;54.152;19.432;2023-12-22T05:28:48;97176.41;;;2.91;84.13
66742;BME280;53654;54.152;19.432;2023-12-22T05:31:20;97176.45;;;2.90;84.33
66742;BME280;53654;54.152;19.432;2023-12-22T05:33:48;97165.30;;;2.89;84.78
66742;BME280;53654;54.152;19.432;2023-12-22T05:36:16;97160.73;;;2.92;85.03
66742;BME280;53654;54.152;19.432;2023-12-22T05:38:45;97157.92;;;2.93;84.83
66742;BME280;53654;54.152;19.432;2023-12-22T05:41:13;97154.11;;;2.94;84.93
66742;BME280;53654;54.152;19.432;2023-12-22T05:43:42;97155.21;;;2.97;85.27
66742;BME280;53654;54.152;19.432;2023-12-22T05:46:10;97158.21;;;3.00;85.30
66742;BME280;53654;54.152;19.432;2023-12-22T05:48:39;97165.64;;;3.04;85.34
66742;BME280;53654;54.152;19.432;2023-12-22T05:51:07;97165.30;;;3.08;85.51
66742;BME280;53654;54.152;19.432;2023-12-22T05:53:41;97168.57;;;3.14;85.61
66742;BME280;53654;54.152;19.432;2023-12-22T05:56:17;97169.41;;;3.19;85.48
66742;BME280;53654;54.152;19.432;2023-12-22T05:58:48;97170.19;;;3.21;85.49
66742;BME280;53654;54.152;19.432;2023-12-22T06:01:18;97173.44;;;3.27;85.23
66742;BME280;53654;54.152;19.432;2023-12-22T06:03:47;97170.22;;;3.30;85.10
66742;BME280;53654;54.152;19.432;2023-12-22T06:06:15;97173.10;;;3.36;84.91
66742;BME280;53654;54.152;19.432;2023-12-22T06:08:43;97171.48;;;3.42;84.42
66742;BME280;53654;54.152;19.432;2023-12-22T06:11:11;97173.92;;;3.46;84.09
66742;BME280;53654;54.152;19.432;2023-12-22T06:13:40;97171.91;;;3.49;83.29
66742;BME280;53654;54.152;19.432;2023-12-22T06:16:13;97184.98;;;3.50;82.82
66742;BME280;53654;54.152;19.432;2023-12-22T06:18:43;97187.71;;;3.50;82.45
66742;BME280;53654;54.152;19.432;2023-12-22T06:21:11;97191.57;;;3.53;82.52
66742;BME280;53654;54.152;19.432;2023-12-22T06:23:39;97181.05;;;3.54;82.27
66742;BME280;53654;54.152;19.432;2023-12-22T06:26:08;97187.73;;;3.54;81.93
66742;BME280;53654;54.152;19.432;2023-12-22T06:28:37;97188.09;;;3.54;81.94
66742;BME280;53654;54.152;19.432;2023-12-22T06:31:16;97193.09;;;3.54;81.78
66742;BME280;53654;54.152;19.432;2023-12-22T06:33:48;97192.23;;;3.54;81.80
66742;BME280;53654;54.152;19.432;2023-12-22T06:36:26;97193.21;;;3.56;81.90
66742;BME280;53654;54.152;19.432;2023-12-22T06:38:54;97196.86;;;3.55;81.76
66742;BME280;53654;54.152;19.432;2023-12-22T06:41:29;97200.71;;;3.53;81.71
66742;BME280;53654;54.152;19.432;2023-12-22T06:43:58;97208.02;;;3.51;81.89
66742;BME280;53654;54.152;19.432;2023-12-22T06:46:30;97208.56;;;3.46;82.36
66742;BME280;53654;54.152;19.432;2023-12-22T06:48:59;97216.52;;;3.45;82.36
66742;BME280;53654;54.152;19.432;2023-12-22T06:51:31;97215.59;;;3.42;82.40
66742;BME280;53654;54.152;19.432;2023-12-22T06:54:03;97214.59;;;3.41;82.57
66742;BME280;53654;54.152;19.432;2023-12-22T06:56:35;97217.02;;;3.41;82.35
66742;BME280;53654;54.152;19.432;2023-12-22T06:59:03;97214.88;;;3.43;82.25
66742;BME280;53654;54.152;19.432;2023-12-22T07:01:33;97217.39;;;3.45;82.32
66742;BME280;53654;54.152;19.432;2023-12-22T07:04:03;97220.64;;;3.45;81.92
66742;BME280;53654;54.152;19.432;2023-12-22T07:06:33;97223.80;;;3.44;81.65
66742;BME280;53654;54.152;19.432;2023-12-22T07:11:45;97217.19;;;3.46;80.85
66742;BME280;53654;54.152;19.432;2023-12-22T07:14:14;97213.08;;;3.45;80.23
66742;BME280;53654;54.152;19.432;2023-12-22T07:16:43;97223.81;;;3.43;79.67
66742;BME280;53654;54.152;19.432;2023-12-22T07:19:12;97228.45;;;3.44;79.75
66742;BME280;53654;54.152;19.432;2023-12-22T07:21:41;97232.96;;;3.48;79.68
66742;BME280;53654;54.152;19.432;2023-12-22T07:24:13;97238.20;;;3.51;79.17
66742;BME280;53654;54.152;19.432;2023-12-22T07:26:43;97242.00;;;3.50;79.00
66742;BME280;53654;54.152;19.432;2023-12-22T07:29:14;97244.02;;;3.52;79.10
66742;BME280;53654;54.152;19.432;2023-12-22T07:31:42;97242.92;;;3.53;79.40
66742;BME280;53654;54.152;19.432;2023-12-22T07:34:13;97239.10;;;3.54;79.27
66742;BME280;53654;54.152;19.432;2023-12-22T07:36:41;97239.08;;;3.55;79.29
66742;BME280;53654;54.152;19.432;2023-12-22T07:39:21;97240.26;;;3.56;79.59
66742;BME280;53654;54.152;19.432;2023-12-22T07:41:50;97235.54;;;3.58;79.25
66742;BME280;53654;54.152;19.432;2023-12-22T07:44:18;97234.56;;;3.56;78.81
66742;BME280;53654;54.152;19.432;2023-12-22T07:46:55;97237.66;;;3.56;78.36
66742;BME280;53654;54.152;19.432;2023-12-22T07:49:24;97240.53;;;3.53;77.58
66742;BME280;53654;54.152;19.432;2023-12-22T07:51:52;97237.97;;;3.52;76.70
66742;BME280;53654;54.152;19.432;2023-12-22T07:54:21;97234.23;;;3.51;76.45
66742;BME280;53654;54.152;19.432;2023-12-22T07:56:50;97232.56;;;3.54;75.41
66742;BME280;53654;54.152;19.432;2023-12-22T07:59:18;97241.45;;;3.56;74.78
66742;BME280;53654;54.152;19.432;2023-12-22T08:01:58;97244.52;;;3.57;74.58
66742;BME280;53654;54.152;19.432;2023-12-22T08:04:26;97246.53;;;3.59;74.73
66742;BME280;53654;54.152;19.432;2023-12-22T08:06:55;97246.77;;;3.62;74.75
66742;BME280;53654;54.152;19.432;2023-12-22T08:09:23;97251.96;;;3.62;74.15
66742;BME280;53654;54.152;19.432;2023-12-22T08:11:51;97245.70;;;3.63;74.05
66742;BME280;53654;54.152;19.432;2023-12-22T08:14:25;97239.80;;;3.64;74.02
66742;BME280;53654;54.152;19.432;2023-12-22T08:16:53;97234.22;;;3.70;73.88
66742;BME280;53654;54.152;19.432;2023-12-22T08:19:21;97231.27;;;3.75;73.57
66742;BME280;53654;54.152;19.432;2023-12-22T08:21:52;97235.52;;;3.82;73.43
66742;BME280;53654;54.152;19.432;2023-12-22T08:24:21;97239.67;;;3.85;73.36
66742;BME280;53654;54.152;19.432;2023-12-22T08:26:50;97230.65;;;3.87;72.69
66742;BME280;53654;54.152;19.432;2023-12-22T08:29:19;97237.23;;;3.86;72.31
66742;BME280;53654;54.152;19.432;2023-12-22T08:31:48;97233.20;;;3.88;72.44
66742;BME280;53654;54.152;19.432;2023-12-22T08:34:16;97231.42;;;3.90;72.32
66742;BME280;53654;54.152;19.432;2023-12-22T08:36:44;97239.48;;;3.91;71.62
66742;BME280;53654;54.152;19.432;2023-12-22T08:39:13;97229.61;;;3.92;71.42
66742;BME280;53654;54.152;19.432;2023-12-22T08:41:42;97231.98;;;3.93;71.24
66742;BME280;53654;54.152;19.432;2023-12-22T08:44:11;97222.91;;;3.91;71.35
66742;BME280;53654;54.152;19.432;2023-12-22T08:46:42;97220.04;;;3.90;71.53
66742;BME280;53654;54.152;19.432;2023-12-22T08:49:11;97226.73;;;3.91;71.59
66742;BME280;53654;54.152;19.432;2023-12-22T08:51:39;97221.27;;;3.89;71.53
66742;BME280;53654;54.152;19.432;2023-12-22T08:54:09;97205.42;;;3.89;71.74
66742;BME280;53654;54.152;19.432;2023-12-22T08:56:37;97203.05;;;3.87;72.03
66742;BME280;53654;54.152;19.432;2023-12-22T08:59:05;97205.65;;;3.87;72.02
66742;BME280;53654;54.152;19.432;2023-12-22T09:01:37;97203.52;;;3.89;71.92
66742;BME280;53654;54.152;19.432;2023-12-22T09:04:05;97195.48;;;3.91;71.81
66742;BME280;53654;54.152;19.432;2023-12-22T09:06:36;97195.02;;;3.90;71.79
66742;BME280;53654;54.152;19.432;2023-12-22T09:09:04;97187.60;;;3.86;71.67
66742;BME280;53654;54.152;19.432;2023-12-22T09:11:34;97181.06;;;3.81;72.21
66742;BME280;53654;54.152;19.432;2023-12-22T09:14:02;97182.91;;;3.82;72.73
66742;BME280;53654;54.152;19.432;2023-12-22T09:16:32;97180.48;;;3.83;72.65
66742;BME280;53654;54.152;19.432;2023-12-22T09:19:02;97178.73;;;3.83;72.24
66742;BME280;53654;54.152;19.432;2023-12-22T09:21:31;97164.94;;;3.83;72.07
66742;BME280;53654;54.152;19.432;2023-12-22T09:23:59;97167.20;;;3.83;72.36
66742;BME280;53654;54.152;19.432;2023-12-22T09:26:28;97165.73;;;3.85;72.36
66742;BME280;53654;54.152;19.432;2023-12-22T09:28:56;97167.20;;;3.83;72.30
66742;BME280;53654;54.152;19.432;2023-12-22T09:31:25;97167.17;;;3.83;72.32
66742;BME280;53654;54.152;19.432;2023-12-22T09:33:53;97162.27;;;3.81;72.38
66742;BME280;53654;54.152;19.432;2023-12-22T09:36:22;97151.19;;;3.78;72.40
66742;BME280;53654;54.152;19.432;2023-12-22T09:38:50;97146.25;;;3.76;72.76
66742;BME280;53654;54.152;19.432;2023-12-22T09:41:18;97152.05;;;3.78;73.04
66742;BME280;53654;54.152;19.432;2023-12-22T09:43:49;97142.63;;;3.76;73.03
66742;BME280;53654;54.152;19.432;2023-12-22T09:46:20;97142.02;;;3.74;73.29
66742;BME280;53654;54.152;19.432;2023-12-22T09:48:52;97144.38;;;3.75;73.53
66742;BME280;53654;54.152;19.432;2023-12-22T09:51:21;97147.98;;;3.80;73.57
66742;BME280;53654;54.152;19.432;2023-12-22T09:53:49;97143.77;;;3.82;73.55
66742;BME280;53654;54.152;19.432;2023-12-22T09:56:18;97150.38;;;3.81;73.82
66742;BME280;53654;54.152;19.432;2023-12-22T09:58:49;97146.60;;;3.80;74.33
66742;BME280;53654;54.152;19.432;2023-12-22T10:01:18;97148.86;;;3.80;74.79
66742;BME280;53654;54.152;19.432;2023-12-22T10:03:50;97148.36;;;3.75;75.45
66742;BME280;53654;54.152;19.432;2023-12-22T10:06:19;97148.90;;;3.70;75.98
66742;BME280;53654;54.152;19.432;2023-12-22T10:08:50;97157.65;;;3.67;76.28
66742;BME280;53654;54.152;19.432;2023-12-22T10:11:20;97152.06;;;3.64;76.65
66742;BME280;53654;54.152;19.432;2023-12-22T10:13:50;97141.56;;;3.59;77.18
66742;BME280;53654;54.152;19.432;2023-12-22T10:16:21;97145.96;;;3.56;77.42
66742;BME280;53654;54.152;19.432;2023-12-22T10:18:49;97143.94;;;3.55;77.73
66742;BME280;53654;54.152;19.432;2023-12-22T10:21:18;97143.60;;;3.55;77.83
66742;BME280;53654;54.152;19.432;2023-12-22T10:23:46;97148.23;;;3.51;78.03
66742;BME280;53654;54.152;19.432;2023-12-22T10:26:15;97143.01;;;3.48;78.29
66742;BME280;53654;54.152;19.432;2023-12-22T10:28:47;97144.43;;;3.42;78.44
66742;BME280;53654;54.152;19.432;2023-12-22T10:31:17;97145.71;;;3.40;78.68
66742;BME280;53654;54.152;19.432;2023-12-22T10:33:45;97140.77;;;3.39;79.09
66742;BME280;53654;54.152;19.432;2023-12-22T10:36:13;97134.92;;;3.38;79.29
66742;BME280;53654;54.152;19.432;2023-12-22T10:38:42;97124.95;;;3.33;79.34
66742;BME280;53654;54.152;19.432;2023-12-22T10:41:11;97124.27;;;3.29;79.77
66742;BME280;53654;54.152;19.432;2023-12-22T10:43:40;97120.39;;;3.26;79.91
66742;BME280;53654;54.152;19.432;2023-12-22T10:46:09;97113.64;;;3.22;80.21
66742;BME280;53654;54.152;19.432;2023-12-22T10:48:40;97102.21;;;3.20;80.53
66742;BME280;53654;54.152;19.432;2023-12-22T10:51:10;97110.25;;;3.16;80.92
66742;BME280;53654;54.152;19.432;2023-12-22T10:53:42;97105.19;;;3.14;81.04
66742;BME280;53654;54.152;19.432;2023-12-22T10:56:11;97104.61;;;3.11;81.75
66742;BME280;53654;54.152;19.432;2023-12-22T10:58:40;97101.37;;;3.10;82.06
66742;BME280;53654;54.152;19.432;2023-12-22T11:01:11;97107.45;;;3.08;82.07
66742;BME280;53654;54.152;19.432;2023-12-22T11:03:44;97106.42;;;3.08;82.47
66742;BME280;53654;54.152;19.432;2023-12-22T11:06:15;97101.88;;;3.10;82.67
66742;BME280;53654;54.152;19.432;2023-12-22T11:08:46;97103.59;;;3.10;82.69
66742;BME280;53654;54.152;19.432;2023-12-22T11:11:27;97105.80;;;3.11;82.87
66742;BME280;53654;54.152;19.432;2023-12-22T11:14:00;97099.94;;;3.07;83.18
66742;BME280;53654;54.152;19.432;2023-12-22T11:16:29;97097.40;;;3.05;83.37
66742;BME280;53654;54.152;19.432;2023-12-22T11:18:59;97096.55;;;3.05;83.50
66742;BME280;53654;54.152;19.432;2023-12-22T11:21:28;97091.39;;;3.05;83.61
66742;BME280;53654;54.152;19.432;2023-12-22T11:23:57;97097.08;;;3.05;83.81
66742;BME280;53654;54.152;19.432;2023-12-22T11:26:25;97097.33;;;3.03;84.06
66742;BME280;53654;54.152;19.432;2023-12-22T11:28:55;97098.98;;;3.04;84.20
66742;BME280;53654;54.152;19.432;2023-12-22T11:31:23;97104.27;;;3.01;84.47
66742;BME280;53654;54.152;19.432;2023-12-22T11:33:54;97109.42;;;2.97;84.74
66742;BME280;53654;54.152;19.432;2023-12-22T11:36:38;97109.06;;;2.92;84.82
66742;BME280;53654;54.152;19.432;2023-12-22T11:39:06;97103.05;;;2.92;84.89
66742;BME280;53654;54.152;19.432;2023-12-22T11:41:36;97106.45;;;2.93;85.09
66742;BME280;53654;54.152;19.432;2023-12-22T11:44:06;97108.64;;;2.89;85.35
66742;BME280;53654;54.152;19.432;2023-12-22T11:46:34;97103.50;;;2.89;85.13
66742;BME280;53654;54.152;19.432;2023-12-22T11:49:03;97100.23;;;2.88;85.18
66742;BME280;53654;54.152;19.432;2023-12-22T11:51:33;97105.03;;;2.89;85.37
66742;BME280;53654;54.152;19.432;2023-12-22T11:57:36;97094.67;;;2.90;85.89
66742;BME280;53654;54.152;19.432;2023-12-22T12:00:37;97090.86;;;2.86;85.68
66742;BME280;53654;54.152;19.432;2023-12-22T12:03:05;97086.30;;;2.79;86.30
66742;BME280;53654;54.152;19.432;2023-12-22T12:05:34;97093.77;;;2.77;86.18
66742;BME280;53654;54.152;19.432;2023-12-22T12:08:08;97097.80;;;2.79;86.52
66742;BME280;53654;54.152;19.432;2023-12-22T12:10:51;97099.29;;;2.81;86.48
66742;BME280;53654;54.152;19.432;2023-12-22T12:13:23;97105.45;;;2.82;86.56
66742;BME280;53654;54.152;19.432;2023-12-22T12:15:55;97107.30;;;2.83;86.70
66742;BME280;53654;54.152;19.432;2023-12-22T12:18:24;97105.23;;;2.88;86.92
66742;BME280;53654;54.152;19.432;2023-12-22T12:20:55;97101.20;;;2.90;86.93
66742;BME280;53654;54.152;19.432;2023-12-22T12:23:24;97113.18;;;2.93;86.84
66742;BME280;53654;54.152;19.432;2023-12-22T12:25:55;97110.36;;;2.95;87.06
66742;BME280;53654;54.152;19.432;2023-12-22T12:28:29;97112.67;;;2.97;87.13
66742;BME280;53654;54.152;19.432;2023-12-22T12:31:03;97107.48;;;2.98;87.00
66742;BME280;53654;54.152;19.432;2023-12-22T12:33:32;97104.50;;;3.00;87.06
66742;BME280;53654;54.152;19.432;2023-12-22T12:36:03;97108.70;;;3.03;86.94
66742;BME280;53654;54.152;19.432;2023-12-22T12:38:55;97115.66;;;3.05;87.07
66742;BME280;53654;54.152;19.432;2023-12-22T12:41:29;97122.48;;;3.07;87.30
66742;BME280;53654;54.152;19.432;2023-12-22T12:44:04;97118.53;;;3.07;87.02
66742;BME280;53654;54.152;19.432;2023-12-22T12:46:37;97125.76;;;3.07;87.06
66742;BME280;53654;54.152;19.432;2023-12-22T12:49:08;97136.13;;;3.10;87.17
66742;BME280;53654;54.152;19.432;2023-12-22T12:51:47;97143.08;;;3.13;87.26
66742;BME280;53654;54.152;19.432;2023-12-22T12:54:15;97139.85;;;3.12;87.01
66742;BME280;53654;54.152;19.432;2023-12-22T12:56:45;97144.45;;;3.14;86.91
66742;BME280;53654;54.152;19.432;2023-12-22T12:59:15;97154.91;;;3.15;87.10
66742;BME280;53654;54.152;19.432;2023-12-22T13:01:46;97157.88;;;3.14;86.88
66742;BME280;53654;54.152;19.432;2023-12-22T13:04:15;97155.61;;;3.14;87.03
66742;BME280;53654;54.152;19.432;2023-12-22T13:06:50;97155.25;;;3.15;87.27
66742;BME280;53654;54.152;19.432;2023-12-22T13:09:19;97149.09;;;3.19;87.52
66742;BME280;53654;54.152;19.432;2023-12-22T13:11:47;97155.50;;;3.22;87.64
66742;BME280;53654;54.152;19.432;2023-12-22T13:14:23;97156.24;;;3.26;87.39
66742;BME280;53654;54.152;19.432;2023-12-22T13:16:56;97159.38;;;3.30;87.43
66742;BME280;53654;54.152;19.432;2023-12-22T13:19:26;97163.84;;;3.35;87.42
66742;BME280;53654;54.152;19.432;2023-12-22T13:21:55;97168.33;;;3.39;87.26